Time;durP1;ratioP1;P1;durP2;ratioP2;P2;SDS_P1;SDS_P2;PMS_P1;PMS_P2;Temp;Humidity;BMP_temperature;BMP_pressure;BME280_temperature;BME280_humidity;BME280_pressure;Samples;Min_cycle;Max_cycle;Signal;HPM_P1;HPM_P2
2022/12/18 00:02:14;;;;;;;3.77;3.47;;;;;;;21.65;39.06;95733.50;6209710;28;103046;-67
2022/12/18 00:05:17;;;;;;;4.13;3.83;;;;;;;21.64;39.32;95739.91;6210340;28;103650;-67
2022/12/18 00:08:20;;;;;;;3.80;3.50;;;;;;;21.64;39.41;95745.22;6205131;28;103474;-66
2022/12/18 00:11:25;;;;;;;3.97;3.67;;;;;;;21.65;39.25;95746.03;6204495;28;103222;-67
2022/12/18 00:14:28;;;;;;;3.67;3.47;;;;;;;21.64;39.38;95750.56;6209562;28;103146;-67
2022/12/18 00:17:33;;;;;;;4.20;3.90;;;;;;;21.64;39.31;95749.75;6210567;28;102860;-67
2022/12/18 00:20:40;;;;;;;3.90;3.60;;;;;;;21.63;39.58;95756.97;6199960;28;104079;-66
2022/12/18 00:23:45;;;;;;;4.17;3.87;;;;;;;21.64;39.24;95760.41;6209557;28;103021;-67
2022/12/18 00:26:48;;;;;;;3.67;3.40;;;;;;;21.65;39.33;95762.00;6208993;28;103295;-66
2022/12/18 00:29:51;;;;;;;4.10;3.50;;;;;;;21.64;39.13;95757.75;6210284;28;104041;-66
2022/12/18 00:32:56;;;;;;;3.73;3.47;;;;;;;21.64;39.68;95763.09;6199269;28;103204;-67
2022/12/18 00:36:02;;;;;;;3.63;3.43;;;;;;;21.62;39.23;95766.03;6209445;28;103257;-66
2022/12/18 00:39:06;;;;;;;3.90;3.60;;;;;;;21.64;39.27;95773.72;6210167;28;103974;-66
2022/12/18 00:45:32;;;;;;;3.10;2.90;;;;;;;21.64;39.17;95779.06;6203887;28;105458;-66
2022/12/18 00:48:37;;;;;;;3.40;3.20;;;;;;;21.63;39.30;95778.28;6213007;28;104339;-66
2022/12/18 00:51:40;;;;;;;2.90;2.70;;;;;;;21.58;39.44;95775.66;6213132;28;103192;-66
2022/12/18 00:54:43;;;;;;;3.70;3.40;;;;;;;21.63;39.40;95793.47;6203925;28;105680;-67
2022/12/18 00:57:46;;;;;;;3.30;3.10;;;;;;;21.63;38.90;95793.47;6212672;28;104147;-65
2022/12/18 01:00:49;;;;;;;3.40;3.10;;;;;;;21.63;39.29;95801.44;6214046;28;104077;-64
2022/12/18 01:03:53;;;;;;;3.50;3.20;;;;;;;21.62;39.06;95787.34;6213642;28;104032;-64
2022/12/18 01:06:56;;;;;;;2.97;2.77;;;;;;;21.63;39.28;95790.78;6202711;28;103697;-65
2022/12/18 01:09:59;;;;;;;3.47;3.20;;;;;;;21.62;39.40;95802.53;6212801;28;103245;-65
2022/12/18 01:13:02;;;;;;;3.40;3.10;;;;;;;21.63;39.42;95812.09;6213363;28;103438;-69
2022/12/18 01:16:06;;;;;;;3.37;3.17;;;;;;;21.62;39.18;95807.84;6213791;28;103206;-66
2022/12/18 01:19:10;;;;;;;3.23;2.97;;;;;;;21.52;39.22;95793.59;6204672;27;103327;-66
2022/12/18 01:22:14;;;;;;;3.10;2.90;;;;;;;21.62;39.15;95810.50;6212964;28;103333;-66
2022/12/18 01:25:17;;;;;;;3.33;3.07;;;;;;;21.61;39.24;95806.28;6213838;28;103005;-67
2022/12/18 01:28:20;;;;;;;3.20;3.00;;;;;;;21.55;38.89;95799.41;6202139;28;103524;-66
2022/12/18 01:31:25;;;;;;;3.37;3.17;;;;;;;21.58;39.27;95814.81;6212761;28;103382;-67
2022/12/18 01:34:30;;;;;;;2.93;2.73;;;;;;;21.62;38.93;95829.16;6213026;28;103068;-66
2022/12/18 01:37:33;;;;;;;3.37;3.07;;;;;;;21.62;38.88;95823.84;6212386;28;103081;-67
2022/12/18 01:40:37;;;;;;;3.40;3.10;;;;;;;21.61;38.80;95831.03;6202547;28;103233;-66
2022/12/18 01:43:50;;;;;;;2.83;2.63;;;;;;;21.61;38.98;95833.69;6212887;28;104202;-66
2022/12/18 01:46:54;;;;;;;2.87;2.67;;;;;;;21.61;38.94;95835.56;6213152;28;104165;-66
2022/12/18 01:50:01;;;;;;;3.40;3.20;;;;;;;21.49;38.84;95820.75;6213169;28;102988;-67
2022/12/18 01:53:07;;;;;;;2.37;2.20;;;;;;;21.61;39.12;95838.22;6202190;28;103273;-66
2022/12/18 01:56:14;;;;;;;2.70;2.50;;;;;;;21.59;39.16;95835.84;6212408;28;103512;-66
2022/12/18 01:59:17;;;;;;;3.13;2.93;;;;;;;21.61;39.29;95836.34;6210897;28;103509;-66
2022/12/18 02:02:21;;;;;;;2.80;2.60;;;;;;;21.55;38.97;95837.50;6204846;28;104492;-64
2022/12/18 02:05:34;;;;;;;3.17;2.97;;;;;;;21.60;38.95;95852.63;6210583;28;102969;-66
2022/12/18 02:08:44;;;;;;;3.00;2.80;;;;;;;21.61;39.20;95852.34;6212521;28;104149;-66
2022/12/18 02:11:54;;;;;;;3.10;2.90;;;;;;;21.57;39.04;95855.84;6211632;28;103600;-66
2022/12/18 02:15:03;;;;;;;2.87;2.67;;;;;;;21.60;39.10;95865.94;6201851;28;103399;-66
2022/12/18 02:18:13;;;;;;;2.60;2.40;;;;;;;21.52;38.75;95846.06;6212460;28;103434;-66
2022/12/18 02:21:28;;;;;;;3.00;2.80;;;;;;;21.59;38.62;95857.16;6211527;28;103345;-66
2022/12/18 02:24:38;;;;;;;2.53;2.33;;;;;;;21.49;38.97;95850.06;6207344;28;103256;-66
2022/12/18 02:27:45;;;;;;;2.70;2.50;;;;;;;21.59;38.66;95865.16;6206722;28;103109;-65
2022/12/18 02:30:50;;;;;;;2.60;2.40;;;;;;;21.59;38.65;95865.16;6211373;28;103124;-67
2022/12/18 02:33:55;;;;;;;3.03;2.83;;;;;;;21.58;38.81;95866.22;6212019;28;104448;-67
2022/12/18 02:37:01;;;;;;;3.03;2.83;;;;;;;21.58;38.83;95868.88;6202181;28;103964;-66
2022/12/18 02:40:06;;;;;;;2.50;2.30;;;;;;;21.57;38.60;95869.16;6212028;28;103324;-66
2022/12/18 02:43:12;;;;;;;3.17;2.87;;;;;;;21.48;38.85;95856.44;6211340;28;103279;-66
2022/12/18 02:46:28;;;;;;;2.63;2.43;;;;;;;21.59;38.73;95872.34;6212602;28;105908;-66
2022/12/18 02:49:37;;;;;;;2.97;2.77;;;;;;;21.58;38.60;95876.88;6200487;28;104707;-66
2022/12/18 02:52:50;;;;;;;3.00;2.80;;;;;;;21.58;38.72;95887.53;6212036;28;103468;-66
2022/12/18 02:56:03;;;;;;;2.67;2.47;;;;;;;21.54;38.48;95875.84;6211733;28;103523;-66
2022/12/18 02:59:12;;;;;;;2.60;2.40;;;;;;;21.58;38.34;95892.06;6204459;28;103339;-66
2022/12/18 03:02:22;;;;;;;2.50;2.30;;;;;;;21.59;38.33;95896.31;6210175;28;103226;-67
2022/12/18 03:05:32;;;;;;;3.00;2.80;;;;;;;21.58;38.56;95903.50;6210453;28;103139;-66
2022/12/18 03:08:39;;;;;;;2.80;2.60;;;;;;;21.53;38.53;95906.22;6210899;28;103230;-66
2022/12/18 03:15:13;;;;;;;2.40;2.20;;;;;;;21.57;38.92;95909.91;6211151;28;104029;-66
2022/12/18 03:18:24;;;;;;;2.60;2.40;;;;;;;21.58;38.67;95905.38;6210530;28;103117;-66
2022/12/18 03:21:33;;;;;;;2.67;2.47;;;;;;;21.58;38.54;95908.03;6206523;28;104514;-66
2022/12/18 03:24:39;;;;;;;2.70;2.50;;;;;;;21.56;38.73;95921.66;6206231;28;102850;-66
2022/12/18 03:27:48;;;;;;;2.10;2.00;;;;;;;21.57;38.36;95923.22;6210474;28;103254;-67
2022/12/18 03:30:57;;;;;;;2.30;2.10;;;;;;;21.57;38.45;95917.09;6210460;28;103076;-66
2022/12/18 03:34:05;;;;;;;2.77;2.57;;;;;;;21.56;38.77;95931.50;6198395;28;103314;-67
2022/12/18 03:37:08;;;;;;;2.50;2.30;;;;;;;21.58;38.66;95935.47;6210658;28;103073;-66
2022/12/18 03:40:12;;;;;;;2.37;2.17;;;;;;;21.57;38.59;95933.09;6210439;28;103136;-66
2022/12/18 03:43:21;;;;;;;2.17;2.07;;;;;;;21.57;38.30;95930.44;6209963;28;103073;-66
2022/12/18 03:46:31;;;;;;;2.60;2.40;;;;;;;21.57;38.57;95933.09;6200225;28;104211;-66
2022/12/18 03:49:39;;;;;;;2.53;2.33;;;;;;;21.49;38.75;95923.81;6210188;28;102980;-66
2022/12/18 03:52:49;;;;;;;2.23;2.13;;;;;;;21.56;38.29;95952.81;6210343;28;103033;-66
2022/12/18 03:55:53;;;;;;;2.37;2.17;;;;;;;21.58;38.17;95959.44;6203041;28;103561;-66
2022/12/18 03:58:59;;;;;;;2.70;2.50;;;;;;;21.56;38.26;95955.47;6208098;28;103247;-67
2022/12/18 04:02:07;;;;;;;2.60;2.40;;;;;;;21.57;38.58;95954.41;6209857;28;103902;-66
2022/12/18 04:05:13;;;;;;;2.50;2.30;;;;;;;21.56;38.25;95944.81;6209260;28;104104;-67
2022/12/18 04:08:16;;;;;;;2.37;2.20;;;;;;;21.57;38.14;95954.41;6199872;28;103255;-66
2022/12/18 04:11:19;;;;;;;2.60;2.40;;;;;;;21.56;38.25;95952.81;6209005;28;103069;-66
2022/12/18 04:14:22;;;;;;;2.37;2.17;;;;;;;21.56;38.52;95958.13;6210455;28;103494;-66
2022/12/18 04:17:26;;;;;;;2.03;1.93;;;;;;;21.56;38.43;95971.44;6209601;28;103299;-66
2022/12/18 04:20:30;;;;;;;2.57;2.37;;;;;;;21.55;38.05;95970.66;6199512;28;104198;-64
2022/12/18 04:23:33;;;;;;;2.27;2.00;;;;;;;21.54;38.36;95977.06;6212955;28;103430;-67
2022/12/18 04:26:36;;;;;;;2.77;2.57;;;;;;;21.57;38.12;95978.38;6214782;28;105769;-64
2022/12/18 04:29:39;;;;;;;2.27;2.13;;;;;;;21.48;38.30;95960.31;6209670;28;104314;-65
2022/12/18 04:32:43;;;;;;;2.70;2.50;;;;;;;21.30;37.84;95942.34;6207912;28;103353;-65
2022/12/18 04:35:53;;;;;;;2.70;2.50;;;;;;;21.55;38.09;95986.63;6212993;28;103112;-64
2022/12/18 04:38:56;;;;;;;2.30;2.20;;;;;;;21.55;38.57;95991.16;6214214;28;108582;-65
2022/12/18 04:41:59;;;;;;;2.40;2.27;;;;;;;21.51;38.04;95989.06;6202794;28;104130;-64
2022/12/18 04:45:03;;;;;;;2.20;2.10;;;;;;;21.55;38.39;95994.63;6213827;28;103212;-65
2022/12/18 04:48:07;;;;;;;2.30;2.10;;;;;;;21.55;38.00;96010.59;6213398;28;102922;-65
2022/12/18 04:51:11;;;;;;;2.30;2.20;;;;;;;21.54;38.17;96011.69;6213446;28;104051;-65
2022/12/18 04:54:14;;;;;;;2.37;2.20;;;;;;;21.48;38.37;96002.91;6203303;28;104288;-65
2022/12/18 04:57:17;;;;;;;2.53;2.33;;;;;;;21.55;38.13;96015.13;6213781;28;103405;-65
2022/12/18 05:00:21;;;;;;;2.10;2.00;;;;;;;21.51;38.04;96013.03;6213410;28;102957;-65
2022/12/18 05:03:26;;;;;;;2.00;1.90;;;;;;;21.53;38.10;96015.41;6208611;28;104709;-65
2022/12/18 05:06:29;;;;;;;2.33;2.13;;;;;;;21.54;38.31;96026.88;6206955;28;103151;-65
2022/12/18 05:09:32;;;;;;;2.57;2.37;;;;;;;21.53;38.15;96023.41;6213680;28;107600;-65
2022/12/18 05:12:57;;;;;;;2.70;2.50;;;;;;;21.54;38.12;96030.31;6213495;28;104045;-66
2022/12/18 05:15:59;;;;;;;2.27;2.07;;;;;;;21.54;38.09;96040.97;6204969;27;103011;-65
2022/12/18 05:19:04;;;;;;;2.10;1.90;;;;;;;21.54;38.30;96042.84;6212628;28;103107;-64
2022/12/18 05:22:07;;;;;;;2.10;2.00;;;;;;;21.37;37.85;96016.59;6212766;28;103252;-65
2022/12/18 05:25:10;;;;;;;3.00;2.80;;;;;;;21.54;37.95;96050.84;6213349;28;104041;-65
2022/12/18 05:28:13;;;;;;;2.30;2.20;;;;;;;21.54;38.19;96053.50;6202091;28;103247;-65
2022/12/18 05:31:16;;;;;;;2.50;2.30;;;;;;;21.52;37.96;96059.91;6212941;28;103175;-65
2022/12/18 05:34:21;;;;;;;2.40;2.20;;;;;;;21.53;38.29;96063.34;6212082;28;103489;-64
2022/12/18 05:37:24;;;;;;;2.40;2.27;;;;;;;21.53;37.78;96066.03;6211077;28;104564;-64
2022/12/18 05:40:27;;;;;;;2.50;2.30;;;;;;;21.54;38.22;96058.81;6206206;28;104200;-64
2022/12/18 05:43:31;;;;;;;2.37;2.23;;;;;;;21.52;38.15;96070.56;6213316;28;104093;-64
2022/12/18 05:46:34;;;;;;;2.67;2.47;;;;;;;21.53;38.15;96071.34;6212401;28;103462;-64
2022/12/18 05:49:39;;;;;;;2.87;2.67;;;;;;;21.52;38.40;96078.53;6203240;28;105189;-65
2022/12/18 05:52:42;;;;;;;2.80;2.60;;;;;;;21.54;38.23;96088.13;6211514;28;103199;-65
2022/12/18 05:55:46;;;;;;;2.80;2.60;;;;;;;21.53;37.83;96084.66;6212749;28;104225;-65
2022/12/18 05:58:52;;;;;;;2.50;2.30;;;;;;;21.53;37.58;96103.31;6213195;28;104163;-65
2022/12/18 06:01:55;;;;;;;2.57;2.40;;;;;;;21.52;37.96;96110.50;6202592;28;106143;-65
2022/12/18 06:05:00;;;;;;;2.73;2.53;;;;;;;21.43;37.87;96098.03;6212145;28;103014;-65
2022/12/18 06:08:03;;;;;;;2.60;2.40;;;;;;;21.52;38.28;96110.50;6211986;28;106299;-65
2022/12/18 06:11:06;;;;;;;2.97;2.77;;;;;;;21.52;37.92;96107.84;6211004;28;103228;-64
2022/12/18 06:14:10;;;;;;;2.97;2.77;;;;;;;21.49;37.79;96102.25;6202408;28;103918;-65
2022/12/18 06:17:14;;;;;;;2.87;2.60;;;;;;;21.50;38.20;96106.50;6212328;28;104301;-65
2022/12/18 06:20:18;;;;;;;2.70;2.50;;;;;;;21.51;37.65;96116.91;6211935;28;103213;-64
2022/12/18 06:23:21;;;;;;;2.70;2.50;;;;;;;21.52;38.00;96115.03;6205493;28;103091;-64
2022/12/18 06:26:25;;;;;;;2.90;2.70;;;;;;;21.53;37.27;96135.25;6207226;28;103431;-65
2022/12/18 06:29:30;;;;;;;2.60;2.40;;;;;;;21.49;37.83;96128.88;6212736;28;103195;-65
2022/12/18 06:32:33;;;;;;;3.20;3.00;;;;;;;21.51;37.93;96140.88;6211432;28;104165;-66
2022/12/18 06:35:38;;;;;;;2.80;2.60;;;;;;;21.51;37.80;96140.88;6201803;28;102900;-65
2022/12/18 06:38:42;;;;;;;2.80;2.60;;;;;;;21.52;37.78;96144.31;6210405;28;103498;-66
2022/12/18 06:41:45;;;;;;;3.20;2.27;;;;;;;21.51;37.57;96143.53;6211888;28;104322;-64
2022/12/18 06:44:49;;;;;;;2.90;2.70;;;;;;;21.51;37.55;96156.06;6210467;28;103050;-65
2022/12/18 06:47:52;;;;;;;2.93;2.63;;;;;;;21.52;37.69;96165.63;6201593;28;104450;-64
2022/12/18 06:50:56;;;;;;;3.27;3.07;;;;;;;21.44;37.88;96144.88;6211308;28;103682;-65
2022/12/18 06:53:59;;;;;;;3.10;2.90;;;;;;;21.52;37.76;96154.97;6210989;28;103436;-65
2022/12/18 06:57:02;;;;;;;2.43;2.23;;;;;;;21.52;37.34;96160.31;6206617;28;103139;-65
2022/12/18 07:00:07;;;;;;;2.60;2.40;;;;;;;21.51;37.51;96164.84;6205102;28;103379;-65
2022/12/18 07:03:10;;;;;;;2.97;2.77;;;;;;;21.50;37.31;96160.56;6210813;28;104090;-65
2022/12/18 07:06:18;;;;;;;3.03;2.83;;;;;;;21.51;37.69;96159.50;6211205;28;103338;-66
2022/12/18 07:09:21;;;;;;;2.77;2.57;;;;;;;21.51;37.74;96166.72;6199723;27;103218;-65
2022/12/18 07:12:24;;;;;;;3.07;2.87;;;;;;;21.51;37.78;96166.72;6210860;28;103401;-65
2022/12/18 07:15:27;;;;;;;2.63;2.43;;;;;;;21.51;37.67;96172.81;6210439;28;103199;-65
2022/12/18 07:18:30;;;;;;;2.93;2.73;;;;;;;21.51;37.84;96172.81;6211252;28;104070;-65
2022/12/18 07:21:35;;;;;;;3.10;2.90;;;;;;;21.51;37.85;96172.81;6201392;28;103975;-65
2022/12/18 07:24:38;;;;;;;3.03;2.83;;;;;;;21.51;37.42;96180.81;6210747;28;104122;-66
2022/12/18 07:27:41;;;;;;;2.97;2.77;;;;;;;21.50;37.77;96170.41;6210993;28;103461;-66
2022/12/18 07:30:44;;;;;;;3.20;3.00;;;;;;;21.50;37.70;96179.19;6210631;28;102793;-64
2022/12/18 07:33:47;;;;;;;3.47;3.27;;;;;;;21.50;37.72;96187.19;6200584;28;103907;-65
2022/12/18 07:36:52;;;;;;;3.17;2.97;;;;;;;21.49;37.41;96190.91;6211118;28;103616;-65
2022/12/18 07:39:55;;;;;;;2.80;2.60;;;;;;;21.48;37.73;96191.19;6209289;28;103355;-64
2022/12/18 07:42:58;;;;;;;3.60;3.30;;;;;;;21.50;37.46;96200.50;6204756;28;103077;-64
2022/12/18 07:46:01;;;;;;;3.33;3.13;;;;;;;21.50;37.65;96200.50;6206318;28;103078;-64
2022/12/18 07:49:04;;;;;;;3.63;3.33;;;;;;;21.43;37.59;96193.91;6210587;28;104010;-65
2022/12/18 07:52:09;;;;;;;3.43;3.13;;;;;;;21.50;37.13;96207.69;6210070;28;104353;-65
2022/12/18 07:55:12;;;;;;;3.23;3.03;;;;;;;21.51;37.52;96206.66;6199140;28;102863;-65
2022/12/18 07:58:15;;;;;;;3.40;3.10;;;;;;;21.51;37.40;96209.31;6210181;28;103221;-66
2022/12/18 08:01:18;;;;;;;3.40;3.10;;;;;;;21.50;37.64;96216.47;6210498;28;103567;-66
2022/12/18 08:04:23;;;;;;;4.07;3.77;;;;;;;21.51;37.55;96225.31;6209841;28;103548;-66
2022/12/18 08:07:27;;;;;;;4.80;4.50;;;;;;;21.51;37.69;96227.97;6198735;28;103861;-68
2022/12/18 08:10:30;;;;;;;4.70;4.30;;;;;;;21.58;36.95;96236.44;6208955;28;103138;-67
2022/12/18 08:13:33;;;;;;;4.40;4.10;;;;;;;21.61;37.37;96243.09;6209927;28;103144;-67
2022/12/18 08:16:36;;;;;;;6.43;5.87;;;;;;;21.60;37.34;96249.50;6205000;28;103121;-67
2022/12/18 08:19:39;;;;;;;5.90;5.40;;;;;;;21.61;37.16;96249.22;6204656;28;103358;-67
2022/12/18 08:22:44;;;;;;;6.33;5.83;;;;;;;21.61;37.48;96254.53;6209485;28;103493;-67
2022/12/18 08:25:47;;;;;;;7.47;6.87;;;;;;;21.59;37.17;96253.22;6209342;28;103112;-67
2022/12/18 08:28:50;;;;;;;8.50;7.70;;;;;;;21.57;37.67;96263.34;6199934;28;104152;-67
2022/12/18 08:31:53;;;;;;;8.13;7.43;;;;;;;21.52;37.79;96235.69;6209643;28;103204;-66
2022/12/18 08:34:56;;;;;;;8.87;8.07;;;;;;;21.63;37.94;96262.25;6209371;28;103364;-67
2022/12/18 08:38:01;;;;;;;10.07;9.20;;;;;;;21.61;38.10;96264.41;6209326;28;103072;-67
2022/12/18 08:41:06;;;;;;;9.20;8.43;;;;;;;21.62;38.04;96268.66;6198399;28;103102;-66
2022/12/18 08:47:29;;;;;;;8.93;8.13;;;;;;;21.61;37.69;96267.06;6209386;28;103207;-66
2022/12/18 08:50:32;;;;;;;8.80;8.00;;;;;;;21.58;37.62;96263.06;6206244;28;103444;-64
2022/12/18 08:53:37;;;;;;;8.30;7.60;;;;;;;21.57;38.05;96266.81;6203996;28;103913;-64
2022/12/18 08:56:41;;;;;;;8.80;8.10;;;;;;;21.56;37.42;96259.88;6209150;28;103288;-65
2022/12/18 08:59:44;;;;;;;9.20;8.40;;;;;;;21.56;37.44;96257.22;6208907;28;103229;-65
2022/12/18 09:02:47;;;;;;;8.83;8.13;;;;;;;21.55;37.86;96263.63;6199341;28;103759;-65
2022/12/18 09:05:51;;;;;;;8.90;8.00;;;;;;;21.50;37.74;96253.78;6209389;28;103557;-65
2022/12/18 09:08:55;;;;;;;8.20;7.50;;;;;;;21.56;37.40;96256.44;6211476;28;104050;-65
2022/12/18 09:11:58;;;;;;;7.80;7.20;;;;;;;21.55;37.35;96260.97;6212923;28;102868;-65
2022/12/18 09:15:02;;;;;;;7.90;7.30;;;;;;;21.55;37.67;96254.84;6202479;28;103717;-65
2022/12/18 09:18:05;;;;;;;8.20;7.50;;;;;;;21.60;37.34;96252.16;6213139;28;103066;-66
2022/12/18 09:21:12;;;;;;;8.30;7.60;;;;;;;21.65;37.34;96260.09;6212672;28;103368;-65
2022/12/18 09:24:17;;;;;;;8.10;7.40;;;;;;;21.67;37.20;96263.28;6212983;28;103081;-65
2022/12/18 09:27:20;;;;;;;8.50;7.80;;;;;;;21.69;37.18;96261.19;6202479;28;105741;-65
2022/12/18 09:30:23;;;;;;;8.87;8.10;;;;;;;21.71;37.31;96262.50;6212943;28;104268;-66
2022/12/18 09:33:26;;;;;;;8.53;7.83;;;;;;;21.71;37.47;96262.50;6213127;28;103263;-65
2022/12/18 09:36:29;;;;;;;7.93;7.20;;;;;;;21.72;37.54;96260.63;6207537;28;104048;-65
2022/12/18 09:39:34;;;;;;;7.77;7.17;;;;;;;21.74;37.95;96272.59;6207727;28;103460;-66
2022/12/18 09:42:37;;;;;;;7.40;6.80;;;;;;;21.74;37.35;96277.13;6212279;28;103198;-66
2022/12/18 09:45:45;;;;;;;8.43;7.70;;;;;;;21.68;37.40;96271.03;6212491;28;106525;-65
2022/12/18 09:48:53;;;;;;;7.10;6.50;;;;;;;21.61;37.48;96272.38;6202333;27;102888;-65
2022/12/18 09:52:00;;;;;;;8.40;7.70;;;;;;;21.64;37.30;96269.97;6212686;28;103215;-65
2022/12/18 09:55:12;;;;;;;8.60;7.90;;;;;;;21.62;37.39;96271.31;6212527;28;103269;-66
2022/12/18 09:58:21;;;;;;;8.40;7.70;;;;;;;21.62;37.31;96266.00;6212337;28;103154;-65
2022/12/18 10:01:25;;;;;;;7.70;7.10;;;;;;;21.61;37.90;96272.38;6201908;28;104248;-65
2022/12/18 10:04:39;;;;;;;8.23;7.50;;;;;;;21.57;37.62;96263.34;6212887;28;103228;-65
2022/12/18 10:07:53;;;;;;;7.60;7.00;;;;;;;21.59;37.39;96270.00;6211950;28;103031;-65
2022/12/18 10:11:04;;;;;;;7.53;6.93;;;;;;;21.59;37.16;96270.00;6202073;28;103048;-65
2022/12/18 10:14:15;;;;;;;7.77;7.13;;;;;;;21.59;37.36;96266.53;6210894;28;103418;-65
2022/12/18 10:17:27;;;;;;;7.60;7.00;;;;;;;21.58;37.60;96270.28;6211695;28;103078;-65
2022/12/18 10:20:35;;;;;;;6.87;6.33;;;;;;;21.57;37.29;96272.13;6211843;28;103237;-66
2022/12/18 10:23:47;;;;;;;8.03;7.43;;;;;;;21.49;37.39;96262.81;6202930;28;104234;-65
2022/12/18 10:26:54;;;;;;;7.00;6.50;;;;;;;21.55;36.98;96276.94;6212546;28;103248;-65
2022/12/18 10:29:58;;;;;;;7.70;7.10;;;;;;;21.57;37.53;96282.78;6211258;28;103525;-65
2022/12/18 10:33:02;;;;;;;7.70;7.10;;;;;;;21.49;37.17;96262.81;6207825;28;103107;-66
2022/12/18 10:36:06;;;;;;;7.10;6.50;;;;;;;21.50;37.25;96259.09;6206752;28;103023;-65
2022/12/18 10:39:20;;;;;;;8.03;7.33;;;;;;;21.55;37.24;96273.50;6212575;28;104193;-65
2022/12/18 10:42:24;;;;;;;7.03;6.33;;;;;;;21.56;36.98;96267.09;6211687;28;103347;-64
2022/12/18 10:45:27;;;;;;;7.20;6.60;;;;;;;21.56;37.07;96267.09;6200343;28;103366;-65
2022/12/18 10:48:32;;;;;;;7.20;6.60;;;;;;;21.55;36.83;96260.97;6211959;28;104123;-65
2022/12/18 10:51:38;;;;;;;7.83;7.20;;;;;;;21.55;37.25;96268.97;6212004;28;103446;-65
2022/12/18 10:54:49;;;;;;;6.90;6.40;;;;;;;21.55;36.88;96260.97;6211499;28;103178;-65
2022/12/18 10:57:53;;;;;;;6.93;6.33;;;;;;;21.54;36.91;96266.56;6201057;28;103337;-65
2022/12/18 11:01:09;;;;;;;7.10;6.50;;;;;;;21.56;37.16;96267.09;6211696;28;104370;-65
2022/12/18 11:04:19;;;;;;;6.63;6.13;;;;;;;21.55;36.88;96260.16;6211193;28;103220;-66
2022/12/18 11:07:22;;;;;;;6.77;6.27;;;;;;;21.55;37.17;96257.50;6203384;28;104154;-65
2022/12/18 11:10:29;;;;;;;7.00;6.50;;;;;;;21.55;37.14;96254.84;6213091;28;103156;-65
2022/12/18 11:13:34;;;;;;;7.60;6.60;;;;;;;21.55;36.81;96260.16;6212405;28;103130;-65
2022/12/18 11:16:44;;;;;;;6.80;6.30;;;;;;;21.51;37.22;96263.38;6226734;28;104147;-65
2022/12/18 11:20:20;;;;;;;6.83;6.33;;;;;;;21.54;36.87;96263.91;6200830;28;105367;-65
2022/12/18 11:23:24;;;;;;;7.37;6.77;;;;;;;21.53;37.27;96265.78;6212341;28;103363;-65
2022/12/18 11:26:36;;;;;;;6.87;6.27;;;;;;;21.52;37.11;96278.28;6229693;28;103304;-65
2022/12/18 11:29:41;;;;;;;8.10;7.40;;;;;;;21.54;37.15;96269.22;6216114;28;103066;-64
2022/12/18 11:32:50;;;;;;;7.00;6.40;;;;;;;21.53;36.86;96263.09;6228521;28;103006;-66
2022/12/18 11:35:57;;;;;;;6.50;6.00;;;;;;;21.54;36.92;96271.91;6232032;28;103304;-65
2022/12/18 11:39:07;;;;;;;6.90;6.30;;;;;;;21.54;36.91;96271.91;6216284;28;103340;-64
2022/12/18 11:42:18;;;;;;;7.43;6.83;;;;;;;21.53;36.89;96271.09;6201033;28;103387;-65
2022/12/18 11:45:29;;;;;;;7.30;6.70;;;;;;;21.52;36.70;96264.97;6212381;28;104301;-65
2022/12/18 11:48:37;;;;;;;6.43;5.93;;;;;;;21.52;37.03;96270.31;6225734;28;104010;-65
2022/12/18 11:51:49;;;;;;;7.03;6.43;;;;;;;21.54;36.88;96279.88;6210645;28;104261;-68
2022/12/18 11:54:53;;;;;;;7.50;6.90;;;;;;;21.52;37.09;96269.50;6201336;28;105004;-67
2022/12/18 11:58:04;;;;;;;7.50;6.80;;;;;;;21.54;37.29;96279.88;6209325;28;103536;-67
2022/12/18 12:01:19;;;;;;;7.47;6.80;;;;;;;21.52;36.88;96275.63;6215040;28;103003;-68
2022/12/18 12:04:57;;;;;;;8.57;7.67;;;;;;;21.47;37.76;96278.28;6199423;28;103009;-65
2022/12/18 12:08:07;;;;;;;10.17;9.27;;;;;;;21.29;34.91;96276.19;6143457;28;106932;-66
2022/12/18 12:11:23;;;;;;;11.40;10.40;;;;;;;21.08;33.48;96272.00;6185367;28;103111;-65
2022/12/18 12:14:41;;;;;;;11.77;10.67;;;;;;;20.87;31.91;96263.22;6197227;28;104031;-66
2022/12/18 12:17:55;;;;;;;10.80;9.80;;;;;;;21.07;34.12;96276.53;6200765;27;105139;-67
2022/12/18 12:21:04;;;;;;;10.90;9.90;;;;;;;21.11;33.98;96271.47;6212866;28;104163;-66
2022/12/18 12:24:23;;;;;;;10.30;9.40;;;;;;;21.17;34.72;96275.69;6209227;28;104360;-67
2022/12/18 12:27:36;;;;;;;9.87;8.87;;;;;;;21.13;33.90;96258.66;6202613;27;103258;-66
2022/12/18 12:30:52;;;;;;;10.83;9.83;;;;;;;21.23;32.62;96271.97;6213081;28;103535;-65
2022/12/18 12:34:06;;;;;;;10.93;9.80;;;;;;;21.26;32.98;96284.75;6215683;28;103342;-65
2022/12/18 12:37:20;;;;;;;11.10;10.00;;;;;;;21.18;32.82;96269.34;6223182;28;103368;-66
2022/12/18 12:40:27;;;;;;;11.00;10.00;;;;;;;21.23;31.43;96279.97;6211469;28;103636;-66
2022/12/18 12:43:50;;;;;;;11.13;10.17;;;;;;;21.25;31.96;96290.34;6209093;28;103602;-65
2022/12/18 12:46:58;;;;;;;11.60;10.40;;;;;;;21.29;29.98;96278.88;6213124;28;103325;-66
2022/12/18 12:50:13;;;;;;;11.20;9.90;;;;;;;21.56;30.51;96283.06;6217097;27;103472;-67
2022/12/18 12:53:26;;;;;;;10.27;9.37;;;;;;;21.67;30.49;96280.06;6223202;28;103554;-66
2022/12/18 12:56:41;;;;;;;10.20;9.30;;;;;;;21.81;30.95;96291.75;6228612;28;104314;-66
2022/12/18 12:59:51;;;;;;;9.80;8.90;;;;;;;21.82;31.15;96287.25;6223404;28;103207;-66
2022/12/18 13:03:00;;;;;;;10.07;9.07;;;;;;;21.95;31.69;96299.97;6202516;28;103952;-66
2022/12/18 13:06:13;;;;;;;9.70;8.80;;;;;;;22.02;32.04;96305.84;6214271;28;103815;-67
2022/12/18 13:09:17;;;;;;;9.43;8.53;;;;;;;22.01;31.80;96293.56;6230105;28;103652;-67
2022/12/18 13:15:43;;;;;;;8.77;7.97;;;;;;;22.11;32.10;96309.50;6217206;27;103862;-66
2022/12/18 13:18:51;;;;;;;8.80;8.00;;;;;;;22.13;32.32;96303.91;6216893;28;103089;-66
2022/12/18 13:21:56;;;;;;;8.97;8.13;;;;;;;22.15;32.57;96308.94;6213691;28;103415;-66
2022/12/18 13:25:00;;;;;;;7.87;7.17;;;;;;;22.18;33.04;96305.72;6214549;27;103048;-66
2022/12/18 13:28:10;;;;;;;8.77;7.93;;;;;;;22.17;32.67;96307.59;6223202;28;103267;-66
2022/12/18 13:31:14;;;;;;;8.67;7.87;;;;;;;22.15;33.30;96314.28;6213500;28;104012;-66
2022/12/18 13:34:19;;;;;;;8.80;8.10;;;;;;;22.19;33.64;96324.16;6212567;28;103111;-65
2022/12/18 13:37:42;;;;;;;8.20;7.40;;;;;;;22.20;33.24;96328.41;6186102;28;104114;-65
2022/12/18 13:40:57;;;;;;;8.47;7.67;;;;;;;22.08;33.86;96311.94;6213670;28;104138;-65
2022/12/18 13:44:12;;;;;;;8.23;7.50;;;;;;;22.15;33.62;96323.06;6224457;28;103203;-65
2022/12/18 13:47:29;;;;;;;9.10;7.83;;;;;;;22.14;34.24;96337.47;6208169;28;105474;-65
2022/12/18 13:50:32;;;;;;;7.90;7.30;;;;;;;22.09;34.47;96340.97;6207991;28;103200;-65
2022/12/18 13:53:45;;;;;;;7.80;7.10;;;;;;;22.08;34.47;96349.25;6212468;28;103055;-65
2022/12/18 13:56:49;;;;;;;7.77;7.03;;;;;;;22.07;34.73;96356.44;6229745;28;103085;-65
2022/12/18 13:59:52;;;;;;;7.10;6.50;;;;;;;22.04;34.81;96357.00;6201876;27;104136;-65
2022/12/18 14:02:57;;;;;;;8.30;7.60;;;;;;;22.04;34.82;96356.19;6229390;28;103546;-65
2022/12/18 14:06:07;;;;;;;8.10;7.40;;;;;;;22.02;35.27;96359.16;6237690;28;103635;-65
2022/12/18 14:09:15;;;;;;;7.23;6.60;;;;;;;22.02;34.85;96361.81;6237028;28;103207;-65
2022/12/18 14:15:48;;;;;;;7.07;6.47;;;;;;;22.03;35.49;96354.59;6225197;28;102809;-66
2022/12/18 14:18:55;;;;;;;7.37;6.77;;;;;;;22.00;35.51;96358.59;6234431;28;104144;-66
2022/12/18 14:22:17;;;;;;;7.10;6.50;;;;;;;21.93;35.63;96360.75;6205796;27;103586;-65
2022/12/18 14:25:23;;;;;;;8.10;7.40;;;;;;;21.97;35.85;96363.69;6211027;28;104317;-66
2022/12/18 14:28:26;;;;;;;8.10;7.40;;;;;;;21.95;36.13;96369.28;6210696;28;103264;-65
2022/12/18 14:31:32;;;;;;;7.37;6.67;;;;;;;21.95;35.92;96371.94;6211848;28;103212;-66
2022/12/18 14:34:35;;;;;;;7.47;6.87;;;;;;;21.92;36.28;96372.50;6205655;28;103305;-67
2022/12/18 14:37:38;;;;;;;7.37;6.77;;;;;;;21.84;35.91;96365.03;6236115;28;103305;-66
2022/12/18 14:40:42;;;;;;;6.87;6.30;;;;;;;21.96;36.39;96367.41;6220439;28;103217;-65
2022/12/18 14:43:47;;;;;;;7.30;6.70;;;;;;;22.06;36.66;96372.72;6219967;28;105392;-64